Time;durP1;ratioP1;P1;durP2;ratioP2;P2;SDS_P1;SDS_P2;PMS_P1;PMS_P2;Temp;Humidity;BMP_temperature;BMP_pressure;BME280_temperature;BME280_humidity;BME280_pressure;Samples;Min_cycle;Max_cycle;Signal;HPM_P1;HPM_P2
2021/04/10 00:02:14;;;;;;;7.03;3.90;;;;;;;;;;5125518;27;20011;-53
2021/04/10 00:04:39;;;;;;;8.48;4.18;;;;;;;;;;5133726;27;20054;-50
2021/04/10 00:07:04;;;;;;;7.22;4.50;;;;;;;;;;5136520;27;20019;-52
2021/04/10 00:09:29;;;;;;;5.35;3.75;;;;;;;;;;5132038;27;20110;-49
2021/04/10 00:11:55;;;;;;;7.20;3.70;;;;;;;;;;5126347;27;20023;-54
2021/04/10 00:14:20;;;;;;;10.20;4.53;;;;;;;;;;5132189;27;20047;-52
2021/04/10 00:16:45;;;;;;;6.97;4.10;;;;;;;;;;5120466;27;20461;-54
2021/04/10 00:19:11;;;;;;;6.23;3.93;;;;;;;;;;5131552;27;20443;-54
2021/04/10 00:21:36;;;;;;;7.23;3.70;;;;;;;;;;5128447;27;20023;-52
2021/04/10 00:24:01;;;;;;;6.27;3.70;;;;;;;;;;5132528;27;20391;-50
2021/04/10 00:26:27;;;;;;;5.33;3.80;;;;;;;;;;5131591;27;20026;-52
2021/04/10 00:28:52;;;;;;;6.50;3.87;;;;;;;;;;5134824;27;20348;-53
2021/04/10 00:31:17;;;;;;;5.93;3.90;;;;;;;;;;5131062;27;20331;-50
2021/04/10 00:33:43;;;;;;;7.07;3.75;;;;;;;;;;5135417;27;20064;-51
2021/04/10 00:36:08;;;;;;;5.30;3.73;;;;;;;;;;5136047;27;20497;-52
2021/04/10 00:38:34;;;;;;;6.43;3.75;;;;;;;;;;5124445;27;20146;-54
2021/04/10 00:41:00;;;;;;;5.63;3.97;;;;;;;;;;5116213;27;20509;-49
2021/04/10 00:43:25;;;;;;;7.13;3.50;;;;;;;;;;5120398;27;20034;-50
2021/04/10 00:45:51;;;;;;;6.77;3.30;;;;;;;;;;5135804;27;20092;-50
2021/04/10 00:48:16;;;;;;;5.53;3.40;;;;;;;;;;5127340;27;20020;-48
2021/04/10 00:50:41;;;;;;;5.00;3.47;;;;;;;;;;5128546;27;20134;-52
2021/04/10 00:53:07;;;;;;;5.70;3.50;;;;;;;;;;5132036;27;20485;-55
2021/04/10 00:55:32;;;;;;;6.43;3.60;;;;;;;;;;5124268;27;20483;-53
2021/04/10 00:57:57;;;;;;;5.90;3.80;;;;;;;;;;5128144;27;20492;-51
2021/04/10 01:00:22;;;;;;;7.63;4.40;;;;;;;;;;5131534;27;20067;-55
2021/04/10 01:02:48;;;;;;;8.80;3.90;;;;;;;;;;5131605;27;20099;-52
2021/04/10 01:05:13;;;;;;;3.77;3.10;;;;;;;;;;5123592;27;20015;-49
2021/04/10 01:07:38;;;;;;;8.30;3.60;;;;;;;;;;5114893;27;20023;-52
2021/04/10 01:10:04;;;;;;;5.95;3.65;;;;;;;;;;5128563;27;20007;-54
2021/04/10 01:12:37;;;;;;;5.28;3.60;;;;;;;;;;5119405;27;20054;-51
2021/04/10 01:15:08;;;;;;;4.93;3.08;;;;;;;;;;5127473;27;20020;-50
2021/04/10 01:17:38;;;;;;;4.85;2.67;;;;;;;;;;5122580;27;20032;-50
2021/04/10 01:20:26;;;;;;;3.97;2.67;;;;;;;;;;5118434;27;20027;-52
2021/04/10 01:23:03;;;;;;;4.67;3.30;;;;;;;;;;5115364;27;20046;-54
2021/04/10 01:25:41;;;;;;;5.65;3.47;;;;;;;;;;5113941;27;20027;-54
2021/04/10 01:28:18;;;;;;;6.13;3.13;;;;;;;;;;5125588;27;20031;-52
2021/04/10 01:30:43;;;;;;;6.25;3.53;;;;;;;;;;5112442;27;20035;-52
2021/04/10 01:33:14;;;;;;;5.28;3.33;;;;;;;;;;5115300;27;20026;-51
2021/04/10 01:35:41;;;;;;;4.30;2.80;;;;;;;;;;5133583;27;20482;-54
2021/04/10 01:38:11;;;;;;;4.55;2.90;;;;;;;;;;5133256;27;20019;-48
2021/04/10 01:40:37;;;;;;;6.75;3.70;;;;;;;;;;5129810;27;20027;-53
2021/04/10 01:43:03;;;;;;;4.57;3.03;;;;;;;;;;5130146;27;20124;-53
2021/04/10 01:45:29;;;;;;;4.72;2.85;;;;;;;;;;5131451;27;20023;-54
2021/04/10 01:47:56;;;;;;;6.35;3.15;;;;;;;;;;5125890;27;20435;-51
2021/04/10 01:50:22;;;;;;;6.50;3.13;;;;;;;;;;5133066;27;20035;-52
2021/04/10 01:52:48;;;;;;;4.88;3.65;;;;;;;;;;5127819;27;20474;-54
2021/04/10 01:55:13;;;;;;;5.47;2.83;;;;;;;;;;5113988;27;20023;-52
2021/04/10 01:57:39;;;;;;;5.15;2.90;;;;;;;;;;5131005;27;20067;-54
2021/04/10 02:00:05;;;;;;;6.65;2.90;;;;;;;;;;5132882;27;20100;-52
2021/04/10 02:02:31;;;;;;;5.05;2.90;;;;;;;;;;5120686;27;20409;-48
2021/04/10 02:04:56;;;;;;;3.75;2.63;;;;;;;;;;5134140;27;20141;-50
2021/04/10 02:07:23;;;;;;;5.07;3.03;;;;;;;;;;5132372;27;20015;-50
2021/04/10 02:09:49;;;;;;;5.30;2.67;;;;;;;;;;5119893;27;20020;-54
2021/04/10 02:12:17;;;;;;;3.67;2.97;;;;;;;;;;5126803;27;20478;-51
2021/04/10 02:14:43;;;;;;;5.78;2.97;;;;;;;;;;5127110;27;20019;-52
2021/04/10 02:17:08;;;;;;;5.82;2.83;;;;;;;;;;5119869;27;20102;-52
2021/04/10 02:19:33;;;;;;;3.30;2.60;;;;;;;;;;5130449;27;20394;-53
2021/04/10 02:22:00;;;;;;;5.47;3.03;;;;;;;;;;5116705;27;20034;-55
2021/04/10 02:24:26;;;;;;;5.32;2.92;;;;;;;;;;5128393;27;20011;-54
2021/04/10 02:26:51;;;;;;;5.00;2.50;;;;;;;;;;5132485;27;20452;-50
2021/04/10 02:29:16;;;;;;;5.10;2.80;;;;;;;;;;5119180;27;20047;-52
2021/04/10 02:31:45;;;;;;;4.55;2.45;;;;;;;;;;5118190;27;20003;-48
2021/04/10 02:34:31;;;;;;;5.95;2.60;;;;;;;;;;5132629;27;20022;-50
2021/04/10 02:36:58;;;;;;;7.82;3.33;;;;;;;;;;5115230;27;20551;-52
2021/04/10 02:39:23;;;;;;;7.25;3.30;;;;;;;;;;5123826;27;20543;-52
2021/04/10 02:41:50;;;;;;;4.63;2.97;;;;;;;;;;5128499;27;20031;-53
2021/04/10 02:44:16;;;;;;;3.72;2.88;;;;;;;;;;5133218;27;20370;-50
2021/04/10 02:46:47;;;;;;;6.88;3.20;;;;;;;;;;5132063;27;20023;-52
2021/04/10 02:49:15;;;;;;;5.05;3.50;;;;;;;;;;5132751;27;20393;-52
2021/04/10 02:51:45;;;;;;;4.72;2.95;;;;;;;;;;5123449;27;20091;-52
2021/04/10 02:54:12;;;;;;;5.97;3.03;;;;;;;;;;5113356;28;20031;-55
2021/04/10 02:56:39;;;;;;;7.72;3.30;;;;;;;;;;5121931;28;20031;-49
2021/04/10 02:59:06;;;;;;;4.45;2.75;;;;;;;;;;5132681;27;20027;-55
2021/04/10 03:01:32;;;;;;;5.97;3.15;;;;;;;;;;5119484;27;20053;-53
2021/04/10 03:03:59;;;;;;;6.88;3.20;;;;;;;;;;5112023;28;20019;-52
2021/04/10 03:06:25;;;;;;;6.40;2.92;;;;;;;;;;5113005;28;20032;-52
2021/04/10 03:08:51;;;;;;;3.97;2.83;;;;;;;;;;5122159;28;20030;-53
2021/04/10 03:11:16;;;;;;;6.72;3.20;;;;;;;;;;5128851;27;20023;-53
2021/04/10 03:13:41;;;;;;;6.53;2.88;;;;;;;;;;5128286;27;20381;-53
2021/04/10 03:16:07;;;;;;;6.40;3.97;;;;;;;;;;5131961;27;20072;-53
2021/04/10 03:18:32;;;;;;;6.43;2.67;;;;;;;;;;5133173;28;20125;-55
2021/04/10 03:20:58;;;;;;;3.30;2.00;;;;;;;;;;5130218;28;20173;-54
2021/04/10 03:23:23;;;;;;;4.55;2.20;;;;;;;;;;5130731;27;20023;-52
2021/04/10 03:25:48;;;;;;;5.43;2.50;;;;;;;;;;5130637;27;20102;-49
2021/04/10 03:28:15;;;;;;;4.47;2.35;;;;;;;;;;5132098;28;20054;-51
2021/04/10 03:30:40;;;;;;;3.95;2.30;;;;;;;;;;5131339;27;20031;-54
2021/04/10 03:33:06;;;;;;;6.82;2.38;;;;;;;;;;5125704;27;20028;-54
2021/04/10 03:35:31;;;;;;;5.03;2.05;;;;;;;;;;5132333;27;20481;-53
2021/04/10 03:37:57;;;;;;;3.78;1.88;;;;;;;;;;5118916;27;20076;-53
2021/04/10 03:40:23;;;;;;;3.58;2.22;;;;;;;;;;5119893;28;20493;-54
2021/04/10 03:42:48;;;;;;;7.07;2.60;;;;;;;;;;5120127;27;20067;-51
2021/04/10 03:45:14;;;;;;;3.85;2.08;;;;;;;;;;5132844;28;20026;-51
2021/04/10 03:47:39;;;;;;;3.83;2.10;;;;;;;;;;5132420;27;20449;-49
2021/04/10 03:50:06;;;;;;;5.22;2.83;;;;;;;;;;5129697;28;20132;-52
2021/04/10 03:52:31;;;;;;;6.50;2.60;;;;;;;;;;5127859;28;20031;-49
2021/04/10 03:54:56;;;;;;;3.60;1.48;;;;;;;;;;5131905;28;20063;-53
2021/04/10 03:57:21;;;;;;;3.30;1.80;;;;;;;;;;5131758;28;20071;-55
2021/04/10 03:59:47;;;;;;;4.53;2.47;;;;;;;;;;5133447;27;20377;-54
2021/04/10 04:02:13;;;;;;;4.18;2.70;;;;;;;;;;5123426;27;20038;-51
2021/04/10 04:04:38;;;;;;;4.68;2.70;;;;;;;;;;5134604;27;20019;-52
2021/04/10 04:07:03;;;;;;;3.70;2.75;;;;;;;;;;5136731;27;20102;-50
2021/04/10 04:09:29;;;;;;;3.47;2.20;;;;;;;;;;5120965;27;20151;-47
2021/04/10 04:11:54;;;;;;;6.30;2.90;;;;;;;;;;5113598;27;20051;-55
2021/04/10 04:14:19;;;;;;;4.78;2.08;;;;;;;;;;5129183;27;20505;-53
2021/04/10 04:16:44;;;;;;;4.78;2.20;;;;;;;;;;5136395;27;20015;-51
2021/04/10 04:19:10;;;;;;;3.67;1.90;;;;;;;;;;5135793;27;20029;-54
2021/04/10 04:21:35;;;;;;;1.73;1.55;;;;;;;;;;5122108;27;20020;-52
2021/04/10 04:24:00;;;;;;;2.97;1.30;;;;;;;;;;5131790;27;20011;-52
2021/04/10 04:26:25;;;;;;;7.03;1.90;;;;;;;;;;5127227;27;20015;-54
2021/04/10 04:28:50;;;;;;;4.88;2.15;;;;;;;;;;5131465;27;20014;-52
2021/04/10 04:31:16;;;;;;;5.32;2.58;;;;;;;;;;5112681;28;20055;-54
2021/04/10 04:33:41;;;;;;;3.47;1.83;;;;;;;;;;5124458;27;20529;-55
2021/04/10 04:36:06;;;;;;;5.15;1.88;;;;;;;;;;5134449;27;20156;-52
2021/04/10 04:38:31;;;;;;;5.47;1.80;;;;;;;;;;5135331;27;20140;-55
2021/04/10 04:40:57;;;;;;;3.45;1.65;;;;;;;;;;5129579;27;20378;-52
2021/04/10 04:43:22;;;;;;;3.72;1.58;;;;;;;;;;5132139;27;20038;-53
2021/04/10 04:45:47;;;;;;;4.43;1.98;;;;;;;;;;5135883;27;20475;-54
2021/04/10 04:48:12;;;;;;;3.92;1.35;;;;;;;;;;5134616;27;20023;-54
2021/04/10 04:50:38;;;;;;;4.38;1.83;;;;;;;;;;5133976;27;20058;-50
2021/04/10 04:53:03;;;;;;;4.97;1.80;;;;;;;;;;5131020;27;20044;-54
2021/04/10 04:55:28;;;;;;;3.20;1.50;;;;;;;;;;5135429;27;20015;-53
2021/04/10 04:57:53;;;;;;;3.08;1.63;;;;;;;;;;5134472;27;20023;-50
2021/04/10 05:00:19;;;;;;;7.00;1.90;;;;;;;;;;5133563;27;20054;-53
2021/04/10 05:02:44;;;;;;;4.00;3.28;;;;;;;;;;5122477;27;20043;-53
2021/04/10 05:05:09;;;;;;;4.40;2.42;;;;;;;;;;5115041;28;20012;-49
2021/04/10 05:07:35;;;;;;;5.10;3.70;;;;;;;;;;5134418;27;20040;-54
2021/04/10 05:10:00;;;;;;;7.10;4.15;;;;;;;;;;5119657;27;20408;-54
2021/04/10 05:12:25;;;;;;;5.72;4.00;;;;;;;;;;5124376;27;20471;-50
2021/04/10 05:14:50;;;;;;;4.40;3.50;;;;;;;;;;5127002;27;20038;-53
2021/04/10 05:17:16;;;;;;;7.18;2.75;;;;;;;;;;5114614;28;20016;-55
2021/04/10 05:19:41;;;;;;;7.28;3.05;;;;;;;;;;5125863;27;20043;-53
2021/04/10 05:22:06;;;;;;;5.95;3.00;;;;;;;;;;5130791;27;20156;-56
2021/04/10 05:24:31;;;;;;;6.47;3.35;;;;;;;;;;5117268;27;20467;-53
2021/04/10 05:26:57;;;;;;;7.50;5.45;;;;;;;;;;5122492;27;20022;-54
2021/04/10 05:29:22;;;;;;;9.88;3.80;;;;;;;;;;5132498;27;20188;-55
2021/04/10 05:31:47;;;;;;;6.25;2.22;;;;;;;;;;5130574;27;20382;-55
2021/04/10 05:34:12;;;;;;;5.50;2.33;;;;;;;;;;5134267;27;20025;-54
2021/04/10 05:36:38;;;;;;;4.30;2.05;;;;;;;;;;5130461;27;20385;-50
2021/04/10 05:39:03;;;;;;;5.93;2.38;;;;;;;;;;5128838;27;20463;-53
2021/04/10 05:41:28;;;;;;;5.50;2.38;;;;;;;;;;5112122;27;20023;-53
2021/04/10 05:43:54;;;;;;;4.00;2.30;;;;;;;;;;5114334;27;20020;-53
2021/04/10 05:46:19;;;;;;;5.18;2.67;;;;;;;;;;5118744;27;20048;-54
2021/04/10 05:48:44;;;;;;;5.57;2.85;;;;;;;;;;5122036;27;20022;-55
2021/04/10 05:51:09;;;;;;;8.05;3.28;;;;;;;;;;5130257;27;20244;-53
2021/04/10 05:53:35;;;;;;;5.68;3.13;;;;;;;;;;5125707;27;20030;-52
2021/04/10 05:56:00;;;;;;;4.60;2.85;;;;;;;;;;5124419;27;20016;-52
2021/04/10 05:58:25;;;;;;;4.35;3.47;;;;;;;;;;5124135;27;20428;-54
2021/04/10 06:00:50;;;;;;;5.50;3.65;;;;;;;;;;5115941;27;20023;-53
2021/04/10 06:03:16;;;;;;;8.07;4.03;;;;;;;;;;5120301;27;20026;-54
2021/04/10 06:05:45;;;;;;;7.20;4.15;;;;;;;;;;5132632;27;20477;-54
2021/04/10 06:08:10;;;;;;;7.78;3.47;;;;;;;;;;5126944;27;20454;-55
2021/04/10 06:10:35;;;;;;;8.50;4.20;;;;;;;;;;5128226;27;20023;-55
2021/04/10 06:13:00;;;;;;;7.20;3.80;;;;;;;;;;5122955;27;20027;-54
2021/04/10 06:15:26;;;;;;;4.53;3.65;;;;;;;;;;5129696;27;20019;-52
2021/04/10 06:17:51;;;;;;;5.90;4.00;;;;;;;;;;5126042;27;20022;-53
2021/04/10 06:20:17;;;;;;;5.72;4.20;;;;;;;;;;5124318;27;20019;-54
2021/04/10 06:22:43;;;;;;;6.82;4.53;;;;;;;;;;5118749;27;20059;-54
2021/04/10 06:25:08;;;;;;;6.10;4.03;;;;;;;;;;5126004;27;20043;-55
2021/04/10 06:27:37;;;;;;;7.68;4.30;;;;;;;;;;5124304;27;20054;-54
2021/04/10 06:30:03;;;;;;;7.10;5.03;;;;;;;;;;5125266;27;20023;-55
2021/04/10 06:32:28;;;;;;;7.47;4.82;;;;;;;;;;5124470;27;20121;-55
2021/04/10 06:34:53;;;;;;;7.50;4.45;;;;;;;;;;5126533;27;20111;-56
2021/04/10 06:37:19;;;;;;;5.85;4.43;;;;;;;;;;5125733;27;20110;-55
2021/04/10 06:39:44;;;;;;;6.50;4.28;;;;;;;;;;5125293;27;20093;-55
2021/04/10 06:42:09;;;;;;;9.18;5.00;;;;;;;;;;5124080;27;20023;-55
2021/04/10 06:44:34;;;;;;;5.68;4.65;;;;;;;;;;5122610;27;20016;-54
2021/04/10 06:47:03;;;;;;;8.25;5.32;;;;;;;;;;5126159;27;20011;-54
2021/04/10 06:49:29;;;;;;;6.10;5.47;;;;;;;;;;5126493;27;20041;-56
2021/04/10 06:51:55;;;;;;;8.70;5.03;;;;;;;;;;5124111;27;20519;-55
2021/04/10 06:54:20;;;;;;;6.88;4.90;;;;;;;;;;5124479;27;20022;-54
2021/04/10 06:56:56;;;;;;;9.57;6.30;;;;;;;;;;5128403;27;20012;-54
2021/04/10 06:59:37;;;;;;;7.93;6.63;;;;;;;;;;5127044;27;20102;-53
2021/04/10 07:02:05;;;;;;;10.30;6.85;;;;;;;;;;5118903;27;20358;-49
2021/04/10 07:04:30;;;;;;;8.82;6.97;;;;;;;;;;5124945;28;20026;-54
2021/04/10 07:06:57;;;;;;;7.47;6.32;;;;;;;;;;5125502;28;20041;-51
2021/04/10 07:09:23;;;;;;;9.23;6.70;;;;;;;;;;5125293;27;20015;-54
2021/04/10 07:11:48;;;;;;;8.00;6.35;;;;;;;;;;5120917;28;20395;-54
2021/04/10 07:14:14;;;;;;;7.45;6.65;;;;;;;;;;5127347;27;20015;-53
2021/04/10 07:16:39;;;;;;;9.73;7.10;;;;;;;;;;5126586;27;20098;-52
2021/04/10 07:19:11;;;;;;;16.52;12.90;;;;;;;;;;5131492;27;20120;-54
2021/04/10 07:21:37;;;;;;;10.60;7.90;;;;;;;;;;5123418;27;20020;-55
2021/04/10 07:24:02;;;;;;;9.63;7.43;;;;;;;;;;5123226;28;20386;-52
2021/04/10 07:26:45;;;;;;;8.88;7.28;;;;;;;;;;5116525;28;20019;-56
2021/04/10 07:29:29;;;;;;;8.48;7.13;;;;;;;;;;5128141;28;20055;-53
2021/04/10 07:31:55;;;;;;;10.60;6.95;;;;;;;;;;5122723;27;20087;-51
2021/04/10 07:34:21;;;;;;;10.38;7.30;;;;;;;;;;5130711;27;20038;-56
2021/04/10 07:36:59;;;;;;;10.05;7.50;;;;;;;;;;5134944;27;20378;-55
2021/04/10 07:39:25;;;;;;;11.48;7.72;;;;;;;;;;5125972;27;20020;-54
2021/04/10 07:42:03;;;;;;;9.85;7.78;;;;;;;;;;5117787;27;20033;-54
2021/04/10 07:44:38;;;;;;;11.32;8.45;;;;;;;;;;5129689;27;20023;-54
2021/04/10 07:47:05;;;;;;;11.60;8.63;;;;;;;;;;5123758;27;20016;-54
2021/04/10 07:49:31;;;;;;;10.30;8.70;;;;;;;;;;5127976;27;20019;-54
2021/04/10 07:51:57;;;;;;;10.88;8.10;;;;;;;;;;5132345;27;20555;-49
2021/04/10 07:54:27;;;;;;;8.85;7.03;;;;;;;;;;5136644;27;20015;-53
2021/04/10 07:56:55;;;;;;;9.50;7.28;;;;;;;;;;5132253;27;20027;-53
2021/04/10 07:59:21;;;;;;;10.38;8.10;;;;;;;;;;5129191;27;20019;-55
2021/04/10 08:01:46;;;;;;;11.52;7.82;;;;;;;;;;5121193;27;20139;-53
2021/04/10 08:04:12;;;;;;;11.27;8.40;;;;;;;;;;5131456;27;20493;-55
2021/04/10 08:06:37;;;;;;;8.88;7.68;;;;;;;;;;5124916;27;20026;-53
2021/04/10 08:09:02;;;;;;;10.15;7.60;;;;;;;;;;5124752;27;20168;-54
2021/04/10 08:11:35;;;;;;;10.55;8.07;;;;;;;;;;5124512;27;20122;-52
2021/04/10 08:14:05;;;;;;;11.43;7.97;;;;;;;;;;5132166;27;20501;-54
2021/04/10 08:16:30;;;;;;;11.98;8.73;;;;;;;;;;5132598;27;20106;-54
2021/04/10 08:18:56;;;;;;;10.43;8.45;;;;;;;;;;5131886;27;20114;-52
2021/04/10 08:21:42;;;;;;;9.93;7.75;;;;;;;;;;5126444;27;20518;-54
2021/04/10 08:24:26;;;;;;;12.52;8.68;;;;;;;;;;5132692;27;20039;-54
2021/04/10 08:26:55;;;;;;;10.90;8.48;;;;;;;;;;5126550;27;20057;-53
2021/04/10 08:29:21;;;;;;;8.85;7.50;;;;;;;;;;5134200;27;20028;-54
2021/04/10 08:31:46;;;;;;;10.65;8.77;;;;;;;;;;5125810;27;20019;-54
2021/04/10 08:34:12;;;;;;;9.20;8.20;;;;;;;;;;5128461;27;20020;-49
2021/04/10 08:36:42;;;;;;;9.90;7.72;;;;;;;;;;5131797;27;20500;-53
2021/04/10 08:39:08;;;;;;;10.20;8.32;;;;;;;;;;5129015;27;21487;-56
2021/04/10 08:41:35;;;;;;;10.63;8.20;;;;;;;;;;5124906;27;20019;-50
2021/04/10 08:44:00;;;;;;;11.13;8.43;;;;;;;;;;5129324;27;20537;-54
2021/04/10 08:46:28;;;;;;;9.65;7.55;;;;;;;;;;5131588;27;20152;-53
2021/04/10 08:48:56;;;;;;;10.00;8.05;;;;;;;;;;5131842;27;20398;-54
2021/04/10 08:51:22;;;;;;;11.88;8.18;;;;;;;;;;5119067;27;20039;-54
2021/04/10 08:53:49;;;;;;;9.77;8.13;;;;;;;;;;5123207;27;20019;-54
2021/04/10 08:56:18;;;;;;;10.68;8.32;;;;;;;;;;5129230;27;20054;-50
2021/04/10 08:58:43;;;;;;;12.02;8.50;;;;;;;;;;5129970;27;20034;-55
2021/04/10 09:01:10;;;;;;;9.48;8.48;;;;;;;;;;5122911;27;20023;-53
2021/04/10 09:03:44;;;;;;;10.48;8.13;;;;;;;;;;5128886;27;20156;-51
2021/04/10 09:06:10;;;;;;;12.73;8.18;;;;;;;;;;5132413;27;20019;-51
2021/04/10 09:08:35;;;;;;;10.20;8.50;;;;;;;;;;5127115;27;20160;-51
2021/04/10 09:11:01;;;;;;;11.35;8.50;;;;;;;;;;5130178;27;20019;-53
2021/04/10 09:13:27;;;;;;;10.15;8.63;;;;;;;;;;5123057;27;20027;-54
2021/04/10 09:16:11;;;;;;;9.60;7.60;;;;;;;;;;5132255;27;20027;-52
2021/04/10 09:18:36;;;;;;;9.20;7.72;;;;;;;;;;5129470;27;20079;-55
2021/04/10 09:21:08;;;;;;;10.30;7.93;;;;;;;;;;5125234;27;20019;-52
2021/04/10 09:23:34;;;;;;;8.70;7.80;;;;;;;;;;5128378;27;20526;-50
2021/04/10 09:26:05;;;;;;;11.75;8.27;;;;;;;;;;5128949;27;20022;-54
2021/04/10 09:28:32;;;;;;;8.43;7.53;;;;;;;;;;5130844;27;20015;-55
2021/04/10 09:30:58;;;;;;;12.95;8.23;;;;;;;;;;5126036;27;20023;-51
2021/04/10 09:33:29;;;;;;;8.80;7.13;;;;;;;;;;5130404;27;20015;-55
2021/04/10 09:35:54;;;;;;;9.35;7.78;;;;;;;;;;5124432;27;20027;-55
2021/04/10 09:38:39;;;;;;;9.38;7.88;;;;;;;;;;5128631;27;20038;-54
2021/04/10 09:41:04;;;;;;;10.90;8.40;;;;;;;;;;5122647;27;20026;-53
2021/04/10 09:43:29;;;;;;;10.13;8.82;;;;;;;;;;5127721;27;20374;-55
2021/04/10 09:45:55;;;;;;;9.85;7.75;;;;;;;;;;5124513;27;20109;-54
2021/04/10 09:48:21;;;;;;;9.38;7.93;;;;;;;;;;5128025;27;20075;-54
2021/04/10 09:50:49;;;;;;;10.25;7.53;;;;;;;;;;5128554;27;20071;-54
2021/04/10 09:53:18;;;;;;;9.50;7.97;;;;;;;;;;5129128;27;20030;-55
2021/04/10 09:55:44;;;;;;;7.82;7.03;;;;;;;;;;5125519;27;20079;-55
2021/04/10 09:58:10;;;;;;;7.82;7.00;;;;;;;;;;5127769;27;20386;-57
2021/04/10 10:00:36;;;;;;;10.55;7.18;;;;;;;;;;5126882;27;20027;-59
2021/04/10 10:03:02;;;;;;;10.80;8.20;;;;;;;;;;5125141;27;20019;-54
2021/04/10 10:05:32;;;;;;;10.77;7.32;;;;;;;;;;5126279;27;20011;-56
2021/04/10 10:08:03;;;;;;;9.32;7.55;;;;;;;;;;5127992;27;20394;-52
2021/04/10 10:10:29;;;;;;;11.88;7.43;;;;;;;;;;5128659;27;20482;-54
2021/04/10 10:13:02;;;;;;;8.70;6.90;;;;;;;;;;5121991;27;20040;-53
2021/04/10 10:15:27;;;;;;;8.98;7.43;;;;;;;;;;5128459;27;20027;-52
2021/04/10 10:17:53;;;;;;;9.30;7.57;;;;;;;;;;5121289;27;20123;-52
2021/04/10 10:20:18;;;;;;;8.77;7.55;;;;;;;;;;5121007;27;20037;-56
2021/04/10 10:22:43;;;;;;;10.05;7.32;;;;;;;;;;5125105;27;20019;-55
2021/04/10 10:25:09;;;;;;;10.82;8.13;;;;;;;;;;5131183;27;20014;-55
2021/04/10 10:27:34;;;;;;;8.57;7.22;;;;;;;;;;5127013;27;20022;-49
2021/04/10 10:30:00;;;;;;;9.07;7.75;;;;;;;;;;5126918;27;20034;-52
2021/04/10 10:32:25;;;;;;;9.02;7.75;;;;;;;;;;5123250;27;20023;-51
2021/04/10 10:34:50;;;;;;;11.45;8.82;;;;;;;;;;5125895;27;20022;-53
2021/04/10 10:37:16;;;;;;;9.75;8.23;;;;;;;;;;5123903;27;20011;-54
2021/04/10 10:39:43;;;;;;;12.85;10.18;;;;;;;;;;5121219;27;20315;-54
2021/04/10 10:42:08;;;;;;;11.48;9.85;;;;;;;;;;5128222;27;20034;-55
2021/04/10 10:44:36;;;;;;;13.00;10.50;;;;;;;;;;5131564;27;20015;-54
2021/04/10 10:47:03;;;;;;;14.10;11.00;;;;;;;;;;5119734;27;20024;-53
2021/04/10 10:49:28;;;;;;;11.77;10.52;;;;;;;;;;5125372;27;20054;-54
2021/04/10 10:51:54;;;;;;;13.38;11.73;;;;;;;;;;5118944;27;20138;-55
2021/04/10 10:54:28;;;;;;;11.20;10.13;;;;;;;;;;5125731;27;20114;-53
2021/04/10 10:56:53;;;;;;;12.00;10.23;;;;;;;;;;5131139;27;20051;-53
2021/04/10 10:59:19;;;;;;;14.82;10.93;;;;;;;;;;5132705;27;20418;-55
2021/04/10 11:01:44;;;;;;;13.40;10.27;;;;;;;;;;5127349;27;20068;-52
2021/04/10 11:04:11;;;;;;;14.60;10.95;;;;;;;;;;5127302;27;20029;-52
2021/04/10 11:06:39;;;;;;;12.40;11.05;;;;;;;;;;5131336;27;20022;-54
2021/04/10 11:09:05;;;;;;;14.77;11.00;;;;;;;;;;5116269;27;20478;-55
2021/04/10 11:11:41;;;;;;;13.65;11.32;;;;;;;;;;5122222;28;20055;-53
2021/04/10 11:14:07;;;;;;;14.00;12.27;;;;;;;;;;5126622;28;20023;-55
2021/04/10 11:16:40;;;;;;;15.02;12.27;;;;;;;;;;5129695;27;20019;-55
2021/04/10 11:19:05;;;;;;;15.63;12.00;;;;;;;;;;5128804;28;20037;-54
2021/04/10 11:21:31;;;;;;;14.35;11.90;;;;;;;;;;5113236;28;20027;-53
2021/04/10 11:23:59;;;;;;;15.45;13.50;;;;;;;;;;5126492;27;20110;-55
2021/04/10 11:26:30;;;;;;;15.50;12.32;;;;;;;;;;5121944;28;20022;-53
2021/04/10 11:29:11;;;;;;;17.15;13.20;;;;;;;;;;5124488;28;20467;-55
2021/04/10 11:31:36;;;;;;;14.68;13.13;;;;;;;;;;5113869;28;20072;-50
2021/04/10 11:34:21;;;;;;;14.88;12.18;;;;;;;;;;5128953;28;20019;-49
2021/04/10 11:36:55;;;;;;;14.18;12.68;;;;;;;;;;5123828;28;20390;-52
2021/04/10 11:39:21;;;;;;;14.57;12.83;;;;;;;;;;5123980;28;20031;-50
2021/04/10 11:41:49;;;;;;;17.90;13.18;;;;;;;;;;5122075;28;20366;-54
2021/04/10 11:44:18;;;;;;;15.88;12.82;;;;;;;;;;5127680;27;20083;-51
2021/04/10 11:46:43;;;;;;;16.73;13.30;;;;;;;;;;5124937;27;20381;-48
2021/04/10 11:49:08;;;;;;;16.02;12.70;;;;;;;;;;5120153;28;20547;-55
2021/04/10 11:51:34;;;;;;;15.77;12.52;;;;;;;;;;5120663;27;20043;-54
2021/04/10 11:53:59;;;;;;;13.45;12.15;;;;;;;;;;5125183;27;20509;-55
2021/04/10 11:56:33;;;;;;;13.57;12.13;;;;;;;;;;5125124;27;20031;-52
2021/04/10 11:59:03;;;;;;;13.30;12.00;;;;;;;;;;5122965;27;20047;-54
2021/04/10 12:01:28;;;;;;;13.35;11.93;;;;;;;;;;5121302;27;20277;-56
2021/04/10 12:04:00;;;;;;;12.40;10.90;;;;;;;;;;5116305;28;20261;-57
2021/04/10 12:06:26;;;;;;;17.52;14.10;;;;;;;;;;5113863;27;20027;-56
2021/04/10 12:08:51;;;;;;;18.65;13.02;;;;;;;;;;5110621;28;20386;-54
2021/04/10 12:11:17;;;;;;;14.80;12.63;;;;;;;;;;5110815;28;20020;-55
2021/04/10 12:13:42;;;;;;;14.27;12.75;;;;;;;;;;5123558;28;20470;-54
2021/04/10 12:16:08;;;;;;;16.20;13.13;;;;;;;;;;5132747;28;20028;-55
2021/04/10 12:18:34;;;;;;;14.18;12.77;;;;;;;;;;5121874;28;20030;-57
2021/04/10 12:20:59;;;;;;;14.60;13.10;;;;;;;;;;5125358;27;20024;-54
2021/04/10 12:23:25;;;;;;;14.32;12.88;;;;;;;;;;5121592;27;20022;-57
2021/04/10 12:25:50;;;;;;;14.57;12.95;;;;;;;;;;5128175;27;20027;-54
2021/04/10 12:28:18;;;;;;;14.50;12.95;;;;;;;;;;5125097;27;20466;-56
2021/04/10 12:30:43;;;;;;;13.27;11.98;;;;;;;;;;5128107;27;20031;-56
2021/04/10 12:33:09;;;;;;;13.85;12.38;;;;;;;;;;5125764;27;20049;-56
2021/04/10 12:35:34;;;;;;;13.77;12.48;;;;;;;;;;5128843;27;20136;-56
2021/04/10 12:37:59;;;;;;;15.75;14.15;;;;;;;;;;5128675;27;20037;-57
2021/04/10 12:40:25;;;;;;;16.10;13.10;;;;;;;;;;5128374;27;20352;-57
2021/04/10 12:42:50;;;;;;;14.85;13.25;;;;;;;;;;5124903;27;20039;-57
2021/04/10 12:45:16;;;;;;;16.23;14.52;;;;;;;;;;5128043;27;20015;-56
2021/04/10 12:47:47;;;;;;;16.05;13.82;;;;;;;;;;5127632;27;20028;-57
2021/04/10 12:50:14;;;;;;;17.70;15.07;;;;;;;;;;5126849;27;20405;-55
2021/04/10 12:52:39;;;;;;;15.13;13.63;;;;;;;;;;5124918;27;20401;-56
2021/04/10 12:55:05;;;;;;;16.10;14.40;;;;;;;;;;5125138;27;20027;-53
2021/04/10 12:57:30;;;;;;;17.02;14.75;;;;;;;;;;5128541;27;20027;-57
2021/04/10 12:59:56;;;;;;;15.35;13.73;;;;;;;;;;5125386;27;20033;-54
2021/04/10 13:02:21;;;;;;;17.38;15.35;;;;;;;;;;5124548;27;20015;-56
2021/04/10 13:04:46;;;;;;;15.88;13.50;;;;;;;;;;5122125;27;20385;-55
2021/04/10 13:07:12;;;;;;;15.05;13.30;;;;;;;;;;5119587;27;20023;-57
2021/04/10 13:09:37;;;;;;;16.45;13.85;;;;;;;;;;5125050;27;20023;-56
2021/04/10 13:12:02;;;;;;;17.35;13.95;;;;;;;;;;5124384;27;20027;-57
2021/04/10 13:14:27;;;;;;;15.85;14.25;;;;;;;;;;5124802;27;20068;-56
2021/04/10 13:16:54;;;;;;;17.42;14.82;;;;;;;;;;5119834;27;20047;-52
2021/04/10 13:19:21;;;;;;;17.02;13.77;;;;;;;;;;5133466;27;20027;-53
2021/04/10 13:21:46;;;;;;;15.50;13.85;;;;;;;;;;5121006;27;20032;-57
2021/04/10 13:24:12;;;;;;;15.85;13.55;;;;;;;;;;5117370;27;20037;-56
2021/04/10 13:26:38;;;;;;;14.23;12.77;;;;;;;;;;5125551;27;20046;-57
2021/04/10 13:29:03;;;;;;;16.23;12.93;;;;;;;;;;5120560;27;20024;-56
2021/04/10 13:31:29;;;;;;;13.00;11.57;;;;;;;;;;5127022;27;20037;-56
2021/04/10 13:33:54;;;;;;;13.20;11.65;;;;;;;;;;5134752;27;20481;-55
2021/04/10 13:36:19;;;;;;;12.30;11.00;;;;;;;;;;5133644;27;20383;-53
2021/04/10 13:38:44;;;;;;;13.52;12.13;;;;;;;;;;5129543;27;20382;-56
2021/04/10 13:41:09;;;;;;;14.15;12.65;;;;;;;;;;5113078;27;20420;-56
2021/04/10 13:43:35;;;;;;;16.02;13.55;;;;;;;;;;5132745;27;20469;-56
2021/04/10 13:46:00;;;;;;;14.15;12.65;;;;;;;;;;5128521;27;20152;-53
2021/04/10 13:48:26;;;;;;;15.40;12.40;;;;;;;;;;5132464;27;20030;-53
2021/04/10 13:50:52;;;;;;;17.95;14.68;;;;;;;;;;5126993;27;20047;-50
2021/04/10 13:53:17;;;;;;;15.88;14.27;;;;;;;;;;5132832;27;20030;-46
2021/04/10 13:55:42;;;;;;;15.27;13.15;;;;;;;;;;5128062;27;20023;-50
2021/04/10 13:58:08;;;;;;;15.25;13.07;;;;;;;;;;5123635;27;20102;-50
2021/04/10 14:00:33;;;;;;;14.52;12.90;;;;;;;;;;5125033;27;20019;-52
2021/04/10 14:02:58;;;;;;;14.13;12.60;;;;;;;;;;5111576;27;20095;-52
2021/04/10 14:05:23;;;;;;;13.88;12.45;;;;;;;;;;5119608;27;20027;-48
2021/04/10 14:07:49;;;;;;;15.38;12.93;;;;;;;;;;5131255;27;20045;-52
2021/04/10 14:10:18;;;;;;;15.38;12.93;;;;;;;;;;5130768;27;20102;-53
2021/04/10 14:12:43;;;;;;;17.08;14.00;;;;;;;;;;5128119;27;20026;-53
2021/04/10 14:15:10;;;;;;;14.43;12.93;;;;;;;;;;5129600;27;20106;-52
2021/04/10 14:17:35;;;;;;;14.00;12.50;;;;;;;;;;5131283;27;20042;-54
2021/04/10 14:20:01;;;;;;;14.30;12.32;;;;;;;;;;5131508;27;20474;-55
2021/04/10 14:22:26;;;;;;;13.88;12.40;;;;;;;;;;5113306;27;20492;-51
2021/04/10 14:24:52;;;;;;;14.77;13.32;;;;;;;;;;5121708;27;20015;-50
2021/04/10 14:27:17;;;;;;;13.75;12.35;;;;;;;;;;5131768;27;20026;-50
2021/04/10 14:29:43;;;;;;;13.68;12.27;;;;;;;;;;5128299;27;20011;-53
2021/04/10 14:32:09;;;;;;;13.50;11.15;;;;;;;;;;5120191;27;20019;-53